sensor_id;sensor_type;location;lat;lon;timestamp;P1;durP1;ratioP1;P2;durP2;ratioP2
3779;SDS011;1905;52.482;9.802;2022-08-21T00:01:40;4.17;;;2.40;;
3779;SDS011;1905;52.482;9.802;2022-08-21T00:04:09;2.87;;;2.30;;
3779;SDS011;1905;52.482;9.802;2022-08-21T00:06:46;3.03;;;1.80;;
3779;SDS011;1905;52.482;9.802;2022-08-21T00:09:13;2.63;;;2.10;;
3779;SDS011;1905;52.482;9.802;2022-08-21T00:11:41;2.73;;;1.97;;
3779;SDS011;1905;52.482;9.802;2022-08-21T00:14:09;3.77;;;2.30;;
3779;SDS011;1905;52.482;9.802;2022-08-21T00:16:38;2.60;;;1.70;;
3779;SDS011;1905;52.482;9.802;2022-08-21T00:19:06;1.70;;;1.60;;
3779;SDS011;1905;52.482;9.802;2022-08-21T00:21:36;3.37;;;2.00;;
3779;SDS011;1905;52.482;9.802;2022-08-21T00:24:04;3.03;;;2.10;;
3779;SDS011;1905;52.482;9.802;2022-08-21T00:26:33;3.57;;;2.13;;
3779;SDS011;1905;52.482;9.802;2022-08-21T00:29:02;6.23;;;2.20;;
3779;SDS011;1905;52.482;9.802;2022-08-21T00:31:30;3.10;;;2.00;;
3779;SDS011;1905;52.482;9.802;2022-08-21T00:33:57;4.03;;;2.00;;
3779;SDS011;1905;52.482;9.802;2022-08-21T00:36:26;5.10;;;2.37;;
3779;SDS011;1905;52.482;9.802;2022-08-21T00:38:55;3.37;;;2.10;;
3779;SDS011;1905;52.482;9.802;2022-08-21T00:41:23;3.40;;;1.97;;
3779;SDS011;1905;52.482;9.802;2022-08-21T00:44:04;3.20;;;1.83;;
3779;SDS011;1905;52.482;9.802;2022-08-21T00:46:32;3.00;;;1.93;;
3779;SDS011;1905;52.482;9.802;2022-08-21T00:48:59;3.80;;;2.13;;
3779;SDS011;1905;52.482;9.802;2022-08-21T00:51:28;2.57;;;2.30;;
3779;SDS011;1905;52.482;9.802;2022-08-21T00:54:05;2.10;;;1.90;;
3779;SDS011;1905;52.482;9.802;2022-08-21T00:56:44;2.03;;;1.83;;
3779;SDS011;1905;52.482;9.802;2022-08-21T00:59:13;2.70;;;1.93;;
3779;SDS011;1905;52.482;9.802;2022-08-21T01:01:42;2.63;;;2.13;;
3779;SDS011;1905;52.482;9.802;2022-08-21T01:04:10;2.20;;;1.80;;
3779;SDS011;1905;52.482;9.802;2022-08-21T01:06:38;2.13;;;1.63;;
3779;SDS011;1905;52.482;9.802;2022-08-21T01:09:07;3.57;;;2.17;;
3779;SDS011;1905;52.482;9.802;2022-08-21T01:11:35;2.00;;;1.90;;
3779;SDS011;1905;52.482;9.802;2022-08-21T01:14:04;3.17;;;1.80;;
3779;SDS011;1905;52.482;9.802;2022-08-21T01:16:31;3.77;;;1.90;;
3779;SDS011;1905;52.482;9.802;2022-08-21T01:19:00;4.77;;;2.20;;
3779;SDS011;1905;52.482;9.802;2022-08-21T01:21:28;4.13;;;2.00;;
3779;SDS011;1905;52.482;9.802;2022-08-21T01:23:56;3.87;;;2.00;;
3779;SDS011;1905;52.482;9.802;2022-08-21T01:26:26;4.97;;;2.00;;
3779;SDS011;1905;52.482;9.802;2022-08-21T01:29:01;3.47;;;1.63;;
3779;SDS011;1905;52.482;9.802;2022-08-21T01:31:33;1.90;;;1.70;;
3779;SDS011;1905;52.482;9.802;2022-08-21T01:34:01;3.27;;;1.67;;
3779;SDS011;1905;52.482;9.802;2022-08-21T01:36:30;5.07;;;1.77;;
3779;SDS011;1905;52.482;9.802;2022-08-21T01:38:58;2.83;;;1.73;;
3779;SDS011;1905;52.482;9.802;2022-08-21T01:41:26;7.13;;;2.10;;
3779;SDS011;1905;52.482;9.802;2022-08-21T01:43:53;2.40;;;2.00;;
3779;SDS011;1905;52.482;9.802;2022-08-21T01:46:21;2.23;;;1.87;;
3779;SDS011;1905;52.482;9.802;2022-08-21T01:48:48;4.20;;;1.67;;
3779;SDS011;1905;52.482;9.802;2022-08-21T01:51:16;2.70;;;1.80;;
3779;SDS011;1905;52.482;9.802;2022-08-21T01:53:45;1.90;;;1.80;;
3779;SDS011;1905;52.482;9.802;2022-08-21T01:56:13;3.17;;;2.20;;
3779;SDS011;1905;52.482;9.802;2022-08-21T01:58:42;3.03;;;1.73;;
3779;SDS011;1905;52.482;9.802;2022-08-21T02:01:12;3.17;;;1.83;;
3779;SDS011;1905;52.482;9.802;2022-08-21T02:03:40;5.30;;;2.30;;
3779;SDS011;1905;52.482;9.802;2022-08-21T02:06:11;5.23;;;2.03;;
3779;SDS011;1905;52.482;9.802;2022-08-21T02:08:41;2.10;;;1.90;;
3779;SDS011;1905;52.482;9.802;2022-08-21T02:11:09;1.77;;;1.63;;
3779;SDS011;1905;52.482;9.802;2022-08-21T02:13:37;1.90;;;1.53;;
3779;SDS011;1905;52.482;9.802;2022-08-21T02:16:05;3.50;;;2.00;;
3779;SDS011;1905;52.482;9.802;2022-08-21T02:18:33;2.57;;;1.63;;
3779;SDS011;1905;52.482;9.802;2022-08-21T02:21:02;2.60;;;1.77;;
3779;SDS011;1905;52.482;9.802;2022-08-21T02:23:30;3.43;;;2.60;;
3779;SDS011;1905;52.482;9.802;2022-08-21T02:25:58;2.27;;;1.87;;
3779;SDS011;1905;52.482;9.802;2022-08-21T02:28:28;2.00;;;1.83;;
3779;SDS011;1905;52.482;9.802;2022-08-21T02:30:56;2.57;;;2.40;;
3779;SDS011;1905;52.482;9.802;2022-08-21T02:33:24;1.97;;;1.60;;
3779;SDS011;1905;52.482;9.802;2022-08-21T02:35:53;2.17;;;1.60;;
3779;SDS011;1905;52.482;9.802;2022-08-21T02:38:22;2.30;;;2.10;;
3779;SDS011;1905;52.482;9.802;2022-08-21T02:40:51;5.97;;;2.10;;
3779;SDS011;1905;52.482;9.802;2022-08-21T02:43:20;2.20;;;1.90;;
3779;SDS011;1905;52.482;9.802;2022-08-21T02:45:51;2.50;;;2.30;;
3779;SDS011;1905;52.482;9.802;2022-08-21T02:48:21;2.30;;;2.10;;
3779;SDS011;1905;52.482;9.802;2022-08-21T02:50:52;2.50;;;2.20;;
3779;SDS011;1905;52.482;9.802;2022-08-21T02:53:21;2.23;;;2.00;;
3779;SDS011;1905;52.482;9.802;2022-08-21T02:55:49;2.07;;;1.87;;
3779;SDS011;1905;52.482;9.802;2022-08-21T02:58:22;7.60;;;2.40;;
3779;SDS011;1905;52.482;9.802;2022-08-21T03:00:53;2.77;;;1.70;;
3779;SDS011;1905;52.482;9.802;2022-08-21T03:03:21;1.70;;;1.60;;
3779;SDS011;1905;52.482;9.802;2022-08-21T03:05:49;2.20;;;2.10;;
3779;SDS011;1905;52.482;9.802;2022-08-21T03:08:17;4.50;;;1.80;;
3779;SDS011;1905;52.482;9.802;2022-08-21T03:10:46;1.80;;;1.60;;
3779;SDS011;1905;52.482;9.802;2022-08-21T03:13:17;1.63;;;1.53;;
3779;SDS011;1905;52.482;9.802;2022-08-21T03:15:46;4.10;;;1.70;;
3779;SDS011;1905;52.482;9.802;2022-08-21T03:18:16;1.77;;;1.40;;
3779;SDS011;1905;52.482;9.802;2022-08-21T03:20:44;5.83;;;2.00;;
3779;SDS011;1905;52.482;9.802;2022-08-21T03:23:12;2.20;;;1.83;;
3779;SDS011;1905;52.482;9.802;2022-08-21T03:25:44;1.67;;;1.57;;
3779;SDS011;1905;52.482;9.802;2022-08-21T03:28:13;4.20;;;1.63;;
3779;SDS011;1905;52.482;9.802;2022-08-21T03:30:43;6.03;;;2.40;;
3779;SDS011;1905;52.482;9.802;2022-08-21T03:33:15;2.67;;;1.93;;
3779;SDS011;1905;52.482;9.802;2022-08-21T03:35:49;2.20;;;2.00;;
3779;SDS011;1905;52.482;9.802;2022-08-21T03:38:24;2.13;;;2.00;;
3779;SDS011;1905;52.482;9.802;2022-08-21T03:40:53;2.00;;;1.90;;
3779;SDS011;1905;52.482;9.802;2022-08-21T03:43:20;2.07;;;1.87;;
3779;SDS011;1905;52.482;9.802;2022-08-21T03:45:48;2.63;;;2.23;;
3779;SDS011;1905;52.482;9.802;2022-08-21T03:48:19;6.93;;;2.70;;
3779;SDS011;1905;52.482;9.802;2022-08-21T03:50:46;2.20;;;2.00;;
3779;SDS011;1905;52.482;9.802;2022-08-21T03:53:16;2.27;;;2.07;;
3779;SDS011;1905;52.482;9.802;2022-08-21T03:55:44;1.73;;;1.63;;
3779;SDS011;1905;52.482;9.802;2022-08-21T03:58:14;2.50;;;1.87;;
3779;SDS011;1905;52.482;9.802;2022-08-21T04:00:43;1.90;;;1.40;;
3779;SDS011;1905;52.482;9.802;2022-08-21T04:03:11;2.17;;;1.83;;
3779;SDS011;1905;52.482;9.802;2022-08-21T04:05:41;1.63;;;1.53;;
3779;SDS011;1905;52.482;9.802;2022-08-21T04:08:08;2.03;;;1.47;;
3779;SDS011;1905;52.482;9.802;2022-08-21T04:10:37;2.23;;;1.73;;
3779;SDS011;1905;52.482;9.802;2022-08-21T04:13:06;1.80;;;1.70;;
3779;SDS011;1905;52.482;9.802;2022-08-21T04:15:34;1.73;;;1.63;;
3779;SDS011;1905;52.482;9.802;2022-08-21T04:18:02;1.80;;;1.70;;
3779;SDS011;1905;52.482;9.802;2022-08-21T04:20:31;4.07;;;1.80;;
3779;SDS011;1905;52.482;9.802;2022-08-21T04:23:00;1.70;;;1.60;;
3779;SDS011;1905;52.482;9.802;2022-08-21T04:25:29;1.70;;;1.60;;
3779;SDS011;1905;52.482;9.802;2022-08-21T04:27:56;2.60;;;1.47;;
3779;SDS011;1905;52.482;9.802;2022-08-21T04:30:24;1.60;;;1.50;;
3779;SDS011;1905;52.482;9.802;2022-08-21T04:32:54;3.90;;;2.10;;
3779;SDS011;1905;52.482;9.802;2022-08-21T04:35:24;1.90;;;1.80;;
3779;SDS011;1905;52.482;9.802;2022-08-21T04:37:54;2.00;;;1.90;;
3779;SDS011;1905;52.482;9.802;2022-08-21T04:40:24;1.90;;;1.50;;
3779;SDS011;1905;52.482;9.802;2022-08-21T04:42:54;3.90;;;2.80;;
3779;SDS011;1905;52.482;9.802;2022-08-21T04:45:27;4.83;;;2.33;;
3779;SDS011;1905;52.482;9.802;2022-08-21T04:47:58;2.70;;;1.70;;
3779;SDS011;1905;52.482;9.802;2022-08-21T04:50:29;4.20;;;2.03;;
3779;SDS011;1905;52.482;9.802;2022-08-21T04:53:05;4.47;;;2.20;;
3779;SDS011;1905;52.482;9.802;2022-08-21T04:55:35;2.20;;;2.00;;
3779;SDS011;1905;52.482;9.802;2022-08-21T04:58:04;3.60;;;2.33;;
3779;SDS011;1905;52.482;9.802;2022-08-21T05:00:32;2.17;;;1.73;;
3779;SDS011;1905;52.482;9.802;2022-08-21T05:03:00;4.30;;;2.57;;
3779;SDS011;1905;52.482;9.802;2022-08-21T05:05:28;3.07;;;2.27;;
3779;SDS011;1905;52.482;9.802;2022-08-21T05:07:56;4.10;;;2.70;;
3779;SDS011;1905;52.482;9.802;2022-08-21T05:10:26;3.30;;;2.70;;
3779;SDS011;1905;52.482;9.802;2022-08-21T05:12:55;4.60;;;1.90;;
3779;SDS011;1905;52.482;9.802;2022-08-21T05:15:23;2.60;;;1.50;;
3779;SDS011;1905;52.482;9.802;2022-08-21T05:17:51;1.60;;;1.50;;
3779;SDS011;1905;52.482;9.802;2022-08-21T05:20:26;1.90;;;1.80;;
3779;SDS011;1905;52.482;9.802;2022-08-21T05:22:54;2.30;;;2.10;;
3779;SDS011;1905;52.482;9.802;2022-08-21T05:25:22;6.93;;;3.83;;
3779;SDS011;1905;52.482;9.802;2022-08-21T05:27:53;3.73;;;2.63;;
3779;SDS011;1905;52.482;9.802;2022-08-21T05:30:24;3.53;;;2.67;;
3779;SDS011;1905;52.482;9.802;2022-08-21T05:32:55;5.67;;;2.73;;
3779;SDS011;1905;52.482;9.802;2022-08-21T05:35:24;3.70;;;2.83;;
3779;SDS011;1905;52.482;9.802;2022-08-21T05:37:52;4.93;;;3.73;;
3779;SDS011;1905;52.482;9.802;2022-08-21T05:40:20;3.93;;;2.90;;
3779;SDS011;1905;52.482;9.802;2022-08-21T05:42:49;5.83;;;3.60;;
3779;SDS011;1905;52.482;9.802;2022-08-21T05:45:22;5.03;;;2.80;;
3779;SDS011;1905;52.482;9.802;2022-08-21T05:48:11;5.20;;;3.50;;
3779;SDS011;1905;52.482;9.802;2022-08-21T05:50:40;6.83;;;3.87;;
3779;SDS011;1905;52.482;9.802;2022-08-21T05:53:09;4.20;;;3.07;;
3779;SDS011;1905;52.482;9.802;2022-08-21T05:55:38;5.17;;;2.57;;
3779;SDS011;1905;52.482;9.802;2022-08-21T05:58:11;5.90;;;3.50;;
3779;SDS011;1905;52.482;9.802;2022-08-21T06:00:39;3.47;;;3.20;;
3779;SDS011;1905;52.482;9.802;2022-08-21T06:03:11;6.10;;;3.13;;
3779;SDS011;1905;52.482;9.802;2022-08-21T06:05:40;4.93;;;3.30;;
3779;SDS011;1905;52.482;9.802;2022-08-21T06:08:07;4.03;;;3.17;;
3779;SDS011;1905;52.482;9.802;2022-08-21T06:10:35;7.50;;;3.60;;
3779;SDS011;1905;52.482;9.802;2022-08-21T06:13:02;7.30;;;3.10;;
3779;SDS011;1905;52.482;9.802;2022-08-21T06:15:30;3.23;;;2.93;;
3779;SDS011;1905;52.482;9.802;2022-08-21T06:17:58;5.00;;;2.77;;
3779;SDS011;1905;52.482;9.802;2022-08-21T06:20:27;6.03;;;2.90;;
3779;SDS011;1905;52.482;9.802;2022-08-21T06:22:54;5.67;;;4.00;;
3779;SDS011;1905;52.482;9.802;2022-08-21T06:25:22;9.60;;;4.70;;
3779;SDS011;1905;52.482;9.802;2022-08-21T06:27:50;6.30;;;3.80;;
3779;SDS011;1905;52.482;9.802;2022-08-21T06:30:19;3.57;;;3.00;;
3779;SDS011;1905;52.482;9.802;2022-08-21T06:32:46;5.23;;;3.17;;
3779;SDS011;1905;52.482;9.802;2022-08-21T06:35:14;6.77;;;3.50;;
3779;SDS011;1905;52.482;9.802;2022-08-21T06:37:43;3.37;;;3.07;;
3779;SDS011;1905;52.482;9.802;2022-08-21T06:40:11;4.47;;;3.70;;
3779;SDS011;1905;52.482;9.802;2022-08-21T06:42:39;3.40;;;3.00;;
3779;SDS011;1905;52.482;9.802;2022-08-21T06:45:09;4.30;;;3.17;;
3779;SDS011;1905;52.482;9.802;2022-08-21T06:47:36;4.90;;;3.40;;
3779;SDS011;1905;52.482;9.802;2022-08-21T06:50:04;4.97;;;4.03;;
3779;SDS011;1905;52.482;9.802;2022-08-21T06:52:33;6.03;;;3.40;;
3779;SDS011;1905;52.482;9.802;2022-08-21T06:55:03;3.93;;;3.53;;
3779;SDS011;1905;52.482;9.802;2022-08-21T06:57:33;5.40;;;3.30;;
3779;SDS011;1905;52.482;9.802;2022-08-21T07:00:00;4.73;;;3.70;;
3779;SDS011;1905;52.482;9.802;2022-08-21T07:02:28;6.13;;;3.43;;
3779;SDS011;1905;52.482;9.802;2022-08-21T07:04:56;7.20;;;3.53;;
3779;SDS011;1905;52.482;9.802;2022-08-21T07:07:25;6.27;;;3.37;;
3779;SDS011;1905;52.482;9.802;2022-08-21T07:09:52;4.00;;;3.20;;
3779;SDS011;1905;52.482;9.802;2022-08-21T07:12:21;3.57;;;3.10;;
3779;SDS011;1905;52.482;9.802;2022-08-21T07:14:49;6.50;;;3.20;;
3779;SDS011;1905;52.482;9.802;2022-08-21T07:17:16;4.63;;;2.90;;
3779;SDS011;1905;52.482;9.802;2022-08-21T07:19:44;3.67;;;3.10;;
3779;SDS011;1905;52.482;9.802;2022-08-21T07:22:11;7.20;;;3.67;;
3779;SDS011;1905;52.482;9.802;2022-08-21T07:24:41;4.03;;;3.10;;
3779;SDS011;1905;52.482;9.802;2022-08-21T07:27:09;8.60;;;4.00;;
3779;SDS011;1905;52.482;9.802;2022-08-21T07:29:38;7.17;;;3.80;;
3779;SDS011;1905;52.482;9.802;2022-08-21T07:32:05;3.57;;;2.93;;
3779;SDS011;1905;52.482;9.802;2022-08-21T07:34:33;7.50;;;3.67;;
3779;SDS011;1905;52.482;9.802;2022-08-21T07:37:01;3.47;;;3.17;;
3779;SDS011;1905;52.482;9.802;2022-08-21T07:39:35;9.93;;;3.97;;
3779;SDS011;1905;52.482;9.802;2022-08-21T07:42:03;7.37;;;4.00;;
3779;SDS011;1905;52.482;9.802;2022-08-21T07:44:33;5.30;;;3.97;;
3779;SDS011;1905;52.482;9.802;2022-08-21T07:47:02;5.93;;;3.63;;
3779;SDS011;1905;52.482;9.802;2022-08-21T07:49:30;3.97;;;3.67;;
3779;SDS011;1905;52.482;9.802;2022-08-21T07:51:58;5.53;;;3.37;;
3779;SDS011;1905;52.482;9.802;2022-08-21T07:54:25;7.07;;;3.93;;
3779;SDS011;1905;52.482;9.802;2022-08-21T07:56:59;5.03;;;3.03;;
3779;SDS011;1905;52.482;9.802;2022-08-21T07:59:26;4.13;;;3.57;;
3779;SDS011;1905;52.482;9.802;2022-08-21T08:01:54;10.23;;;2.90;;
3779;SDS011;1905;52.482;9.802;2022-08-21T08:04:24;3.33;;;3.03;;
3779;SDS011;1905;52.482;9.802;2022-08-21T08:06:52;5.93;;;2.53;;
3779;SDS011;1905;52.482;9.802;2022-08-21T08:09:19;7.10;;;4.30;;
3779;SDS011;1905;52.482;9.802;2022-08-21T08:11:47;7.13;;;2.50;;
3779;SDS011;1905;52.482;9.802;2022-08-21T08:14:14;4.63;;;2.40;;
3779;SDS011;1905;52.482;9.802;2022-08-21T08:16:43;4.30;;;2.90;;
3779;SDS011;1905;52.482;9.802;2022-08-21T08:19:11;5.07;;;3.77;;
3779;SDS011;1905;52.482;9.802;2022-08-21T08:21:40;6.70;;;2.93;;
3779;SDS011;1905;52.482;9.802;2022-08-21T08:24:08;3.27;;;2.80;;
3779;SDS011;1905;52.482;9.802;2022-08-21T08:26:44;6.10;;;2.83;;
3779;SDS011;1905;52.482;9.802;2022-08-21T08:29:19;4.37;;;2.80;;
3779;SDS011;1905;52.482;9.802;2022-08-21T08:31:47;16.17;;;3.20;;
3779;SDS011;1905;52.482;9.802;2022-08-21T08:34:16;3.20;;;2.90;;
3779;SDS011;1905;52.482;9.802;2022-08-21T08:36:52;8.30;;;2.80;;
3779;SDS011;1905;52.482;9.802;2022-08-21T08:39:20;6.93;;;2.73;;
3779;SDS011;1905;52.482;9.802;2022-08-21T08:41:56;4.37;;;2.10;;
3779;SDS011;1905;52.482;9.802;2022-08-21T08:44:48;4.10;;;1.93;;
3779;SDS011;1905;52.482;9.802;2022-08-21T08:47:22;5.37;;;2.57;;
3779;SDS011;1905;52.482;9.802;2022-08-21T08:49:54;3.43;;;2.50;;
3779;SDS011;1905;52.482;9.802;2022-08-21T08:52:28;2.40;;;2.20;;
3779;SDS011;1905;52.482;9.802;2022-08-21T08:55:00;5.10;;;2.13;;
3779;SDS011;1905;52.482;9.802;2022-08-21T08:57:30;7.00;;;2.27;;
3779;SDS011;1905;52.482;9.802;2022-08-21T09:00:00;2.40;;;2.10;;
3779;SDS011;1905;52.482;9.802;2022-08-21T09:02:33;6.87;;;2.47;;
3779;SDS011;1905;52.482;9.802;2022-08-21T09:05:00;4.60;;;2.20;;
3779;SDS011;1905;52.482;9.802;2022-08-21T09:07:34;8.50;;;5.40;;
3779;SDS011;1905;52.482;9.802;2022-08-21T09:10:10;9.83;;;4.27;;
3779;SDS011;1905;52.482;9.802;2022-08-21T09:12:44;10.30;;;4.10;;
3779;SDS011;1905;52.482;9.802;2022-08-21T09:15:20;14.80;;;4.43;;
3779;SDS011;1905;52.482;9.802;2022-08-21T09:17:59;12.37;;;4.43;;
3779;SDS011;1905;52.482;9.802;2022-08-21T09:20:37;2.73;;;2.20;;
3779;SDS011;1905;52.482;9.802;2022-08-21T09:23:13;2.63;;;2.03;;
3779;SDS011;1905;52.482;9.802;2022-08-21T09:25:55;3.23;;;2.23;;
3779;SDS011;1905;52.482;9.802;2022-08-21T09:28:31;6.10;;;2.33;;
3779;SDS011;1905;52.482;9.802;2022-08-21T09:31:00;5.57;;;2.53;;
3779;SDS011;1905;52.482;9.802;2022-08-21T09:33:30;5.77;;;2.53;;
3779;SDS011;1905;52.482;9.802;2022-08-21T09:35:58;3.83;;;2.33;;
3779;SDS011;1905;52.482;9.802;2022-08-21T09:38:27;4.03;;;2.67;;
3779;SDS011;1905;52.482;9.802;2022-08-21T09:40:59;5.63;;;3.00;;
3779;SDS011;1905;52.482;9.802;2022-08-21T09:43:29;8.53;;;2.30;;
3779;SDS011;1905;52.482;9.802;2022-08-21T09:46:03;3.40;;;2.07;;
3779;SDS011;1905;52.482;9.802;2022-08-21T09:48:40;4.43;;;2.10;;
3779;SDS011;1905;52.482;9.802;2022-08-21T09:51:13;6.27;;;2.30;;
3779;SDS011;1905;52.482;9.802;2022-08-21T09:53:47;2.60;;;1.53;;
3779;SDS011;1905;52.482;9.802;2022-08-21T09:56:20;8.93;;;2.30;;
3779;SDS011;1905;52.482;9.802;2022-08-21T09:59:15;7.10;;;2.43;;
3779;SDS011;1905;52.482;9.802;2022-08-21T10:01:46;6.90;;;2.80;;
3779;SDS011;1905;52.482;9.802;2022-08-21T10:04:19;3.00;;;2.00;;
3779;SDS011;1905;52.482;9.802;2022-08-21T10:06:49;4.40;;;2.20;;
3779;SDS011;1905;52.482;9.802;2022-08-21T10:09:23;5.40;;;2.27;;
3779;SDS011;1905;52.482;9.802;2022-08-21T10:11:53;2.70;;;2.20;;
3779;SDS011;1905;52.482;9.802;2022-08-21T10:14:40;5.73;;;2.10;;
3779;SDS011;1905;52.482;9.802;2022-08-21T10:17:17;5.57;;;2.50;;
3779;SDS011;1905;52.482;9.802;2022-08-21T10:19:56;7.37;;;2.70;;
3779;SDS011;1905;52.482;9.802;2022-08-21T10:22:32;6.90;;;2.70;;
3779;SDS011;1905;52.482;9.802;2022-08-21T10:25:11;3.23;;;2.33;;
3779;SDS011;1905;52.482;9.802;2022-08-21T10:27:47;3.83;;;2.27;;
3779;SDS011;1905;52.482;9.802;2022-08-21T10:30:30;4.10;;;2.17;;
3779;SDS011;1905;52.482;9.802;2022-08-21T10:33:11;6.20;;;2.40;;
3779;SDS011;1905;52.482;9.802;2022-08-21T10:35:49;4.50;;;2.53;;
3779;SDS011;1905;52.482;9.802;2022-08-21T10:38:33;5.33;;;2.83;;
3779;SDS011;1905;52.482;9.802;2022-08-21T10:42:01;8.07;;;2.50;;
3779;SDS011;1905;52.482;9.802;2022-08-21T10:44:43;8.23;;;3.00;;
3779;SDS011;1905;52.482;9.802;2022-08-21T10:47:17;9.07;;;3.10;;
3779;SDS011;1905;52.482;9.802;2022-08-21T10:49:53;3.90;;;2.90;;
3779;SDS011;1905;52.482;9.802;2022-08-21T10:52:33;5.60;;;2.67;;
3779;SDS011;1905;52.482;9.802;2022-08-21T10:55:14;13.70;;;4.77;;
3779;SDS011;1905;52.482;9.802;2022-08-21T10:57:50;5.83;;;2.40;;
3779;SDS011;1905;52.482;9.802;2022-08-21T11:00:26;3.77;;;2.40;;
3779;SDS011;1905;52.482;9.802;2022-08-21T11:02:57;3.00;;;1.60;;
3779;SDS011;1905;52.482;9.802;2022-08-21T11:05:33;7.00;;;2.17;;
3779;SDS011;1905;52.482;9.802;2022-08-21T11:08:06;7.00;;;3.07;;
3779;SDS011;1905;52.482;9.802;2022-08-21T11:10:42;8.30;;;4.70;;
3779;SDS011;1905;52.482;9.802;2022-08-21T11:13:29;10.60;;;4.07;;
3779;SDS011;1905;52.482;9.802;2022-08-21T11:16:05;2.87;;;2.17;;
3779;SDS011;1905;52.482;9.802;2022-08-21T11:18:42;9.30;;;2.20;;
3779;SDS011;1905;52.482;9.802;2022-08-21T11:24:05;7.73;;;2.73;;
3779;SDS011;1905;52.482;9.802;2022-08-21T11:26:45;6.17;;;4.03;;
3779;SDS011;1905;52.482;9.802;2022-08-21T11:29:19;3.23;;;2.23;;
3779;SDS011;1905;52.482;9.802;2022-08-21T11:31:56;7.57;;;2.60;;
3779;SDS011;1905;52.482;9.802;2022-08-21T11:34:45;7.10;;;2.60;;
3779;SDS011;1905;52.482;9.802;2022-08-21T11:37:27;3.30;;;2.50;;
3779;SDS011;1905;52.482;9.802;2022-08-21T11:40:15;3.10;;;2.77;;
3779;SDS011;1905;52.482;9.802;2022-08-21T11:42:54;4.13;;;1.93;;
3779;SDS011;1905;52.482;9.802;2022-08-21T11:45:39;5.33;;;2.00;;
3779;SDS011;1905;52.482;9.802;2022-08-21T11:48:13;7.50;;;2.70;;
3779;SDS011;1905;52.482;9.802;2022-08-21T11:50:50;6.60;;;4.20;;
3779;SDS011;1905;52.482;9.802;2022-08-21T11:53:20;13.30;;;5.13;;
3779;SDS011;1905;52.482;9.802;2022-08-21T11:55:58;6.50;;;2.20;;
3779;SDS011;1905;52.482;9.802;2022-08-21T11:58:30;3.17;;;1.97;;
3779;SDS011;1905;52.482;9.802;2022-08-21T12:01:05;4.53;;;2.30;;
3779;SDS011;1905;52.482;9.802;2022-08-21T12:03:36;6.90;;;2.20;;
3779;SDS011;1905;52.482;9.802;2022-08-21T12:06:09;4.27;;;2.20;;
3779;SDS011;1905;52.482;9.802;2022-08-21T12:08:39;2.97;;;1.90;;
3779;SDS011;1905;52.482;9.802;2022-08-21T12:11:09;5.20;;;2.57;;
3779;SDS011;1905;52.482;9.802;2022-08-21T12:13:58;3.97;;;2.30;;
3779;SDS011;1905;52.482;9.802;2022-08-21T12:16:40;2.87;;;1.97;;
3779;SDS011;1905;52.482;9.802;2022-08-21T12:19:10;5.13;;;1.90;;
3779;SDS011;1905;52.482;9.802;2022-08-21T12:21:47;4.63;;;2.77;;
3779;SDS011;1905;52.482;9.802;2022-08-21T12:24:18;2.20;;;1.63;;
3779;SDS011;1905;52.482;9.802;2022-08-21T12:26:51;4.37;;;2.53;;
3779;SDS011;1905;52.482;9.802;2022-08-21T12:29:23;6.93;;;2.30;;
3779;SDS011;1905;52.482;9.802;2022-08-21T12:31:56;7.13;;;3.17;;
3779;SDS011;1905;52.482;9.802;2022-08-21T12:34:29;3.80;;;2.20;;
3779;SDS011;1905;52.482;9.802;2022-08-21T12:37:02;6.60;;;2.27;;
3779;SDS011;1905;52.482;9.802;2022-08-21T12:39:34;3.80;;;2.43;;
3779;SDS011;1905;52.482;9.802;2022-08-21T12:42:06;2.10;;;1.87;;
3779;SDS011;1905;52.482;9.802;2022-08-21T12:44:42;2.87;;;2.40;;
3779;SDS011;1905;52.482;9.802;2022-08-21T12:47:17;5.77;;;2.10;;
3779;SDS011;1905;52.482;9.802;2022-08-21T12:49:56;4.30;;;3.00;;
3779;SDS011;1905;52.482;9.802;2022-08-21T12:52:30;3.60;;;1.90;;
3779;SDS011;1905;52.482;9.802;2022-08-21T12:55:05;9.73;;;2.80;;
3779;SDS011;1905;52.482;9.802;2022-08-21T12:57:35;3.30;;;2.10;;
3779;SDS011;1905;52.482;9.802;2022-08-21T13:00:05;4.43;;;2.30;;
3779;SDS011;1905;52.482;9.802;2022-08-21T13:02:39;7.47;;;3.00;;
3779;SDS011;1905;52.482;9.802;2022-08-21T13:05:14;6.00;;;2.60;;
3779;SDS011;1905;52.482;9.802;2022-08-21T13:07:47;2.23;;;1.70;;
3779;SDS011;1905;52.482;9.802;2022-08-21T13:10:16;3.40;;;2.73;;
3779;SDS011;1905;52.482;9.802;2022-08-21T13:12:47;4.10;;;2.43;;
3779;SDS011;1905;52.482;9.802;2022-08-21T13:15:21;3.33;;;2.53;;
3779;SDS011;1905;52.482;9.802;2022-08-21T13:18:00;4.10;;;2.40;;
3779;SDS011;1905;52.482;9.802;2022-08-21T13:20:31;3.67;;;2.10;;
3779;SDS011;1905;52.482;9.802;2022-08-21T13:23:00;7.37;;;2.60;;
3779;SDS011;1905;52.482;9.802;2022-08-21T13:25:30;7.60;;;2.50;;
3779;SDS011;1905;52.482;9.802;2022-08-21T13:28:04;2.23;;;1.87;;
3779;SDS011;1905;52.482;9.802;2022-08-21T13:30:34;4.33;;;2.33;;
3779;SDS011;1905;52.482;9.802;2022-08-21T13:33:04;3.60;;;2.70;;
3779;SDS011;1905;52.482;9.802;2022-08-21T13:35:45;4.13;;;2.67;;
3779;SDS011;1905;52.482;9.802;2022-08-21T13:38:15;6.57;;;2.70;;
3779;SDS011;1905;52.482;9.802;2022-08-21T13:40:45;3.63;;;2.30;;
3779;SDS011;1905;52.482;9.802;2022-08-21T13:43:17;5.83;;;2.10;;
3779;SDS011;1905;52.482;9.802;2022-08-21T13:45:48;3.50;;;2.63;;
3779;SDS011;1905;52.482;9.802;2022-08-21T13:48:18;3.90;;;2.47;;
3779;SDS011;1905;52.482;9.802;2022-08-21T13:50:47;3.23;;;2.20;;
3779;SDS011;1905;52.482;9.802;2022-08-21T13:53:22;3.83;;;1.93;;
3779;SDS011;1905;52.482;9.802;2022-08-21T13:55:54;4.33;;;2.47;;
3779;SDS011;1905;52.482;9.802;2022-08-21T13:58:27;2.30;;;1.80;;
3779;SDS011;1905;52.482;9.802;2022-08-21T14:00:56;3.43;;;2.10;;
3779;SDS011;1905;52.482;9.802;2022-08-21T14:03:36;3.90;;;2.20;;
3779;SDS011;1905;52.482;9.802;2022-08-21T14:06:11;3.00;;;1.70;;
3779;SDS011;1905;52.482;9.802;2022-08-21T14:08:41;5.43;;;3.30;;
3779;SDS011;1905;52.482;9.802;2022-08-21T14:11:14;2.63;;;2.07;;
3779;SDS011;1905;52.482;9.802;2022-08-21T14:13:43;3.80;;;2.00;;
3779;SDS011;1905;52.482;9.802;2022-08-21T14:16:15;2.90;;;1.87;;
3779;SDS011;1905;52.482;9.802;2022-08-21T14:18:48;3.70;;;2.03;;
3779;SDS011;1905;52.482;9.802;2022-08-21T14:21:24;2.00;;;1.67;;
3779;SDS011;1905;52.482;9.802;2022-08-21T14:24:02;2.40;;;2.20;;
3779;SDS011;1905;52.482;9.802;2022-08-21T14:26:32;2.73;;;2.13;;
3779;SDS011;1905;52.482;9.802;2022-08-21T14:29:04;3.67;;;2.27;;
3779;SDS011;1905;52.482;9.802;2022-08-21T14:31:36;4.27;;;2.30;;
3779;SDS011;1905;52.482;9.802;2022-08-21T14:34:10;2.93;;;2.27;;
3779;SDS011;1905;52.482;9.802;2022-08-21T14:36:45;8.13;;;2.10;;
3779;SDS011;1905;52.482;9.802;2022-08-21T14:39:14;4.10;;;2.80;;
3779;SDS011;1905;52.482;9.802;2022-08-21T14:41:41;5.37;;;2.53;;
3779;SDS011;1905;52.482;9.802;2022-08-21T14:44:12;2.83;;;2.30;;
3779;SDS011;1905;52.482;9.802;2022-08-21T14:46:40;5.13;;;2.43;;
3779;SDS011;1905;52.482;9.802;2022-08-21T14:49:22;4.33;;;2.40;;
3779;SDS011;1905;52.482;9.802;2022-08-21T14:51:52;4.30;;;2.33;;
3779;SDS011;1905;52.482;9.802;2022-08-21T14:54:23;5.03;;;2.30;;
3779;SDS011;1905;52.482;9.802;2022-08-21T14:56:57;3.67;;;2.50;;
3779;SDS011;1905;52.482;9.802;2022-08-21T14:59:27;2.20;;;2.10;;
3779;SDS011;1905;52.482;9.802;2022-08-21T15:01:54;4.50;;;2.50;;
3779;SDS011;1905;52.482;9.802;2022-08-21T15:04:24;4.33;;;2.20;;
3779;SDS011;1905;52.482;9.802;2022-08-21T15:06:52;2.40;;;2.20;;
3779;SDS011;1905;52.482;9.802;2022-08-21T15:09:19;3.80;;;2.27;;
3779;SDS011;1905;52.482;9.802;2022-08-21T15:11:47;3.90;;;2.83;;
3779;SDS011;1905;52.482;9.802;2022-08-21T15:14:16;3.63;;;2.40;;
3779;SDS011;1905;52.482;9.802;2022-08-21T15:16:45;3.73;;;2.40;;
3779;SDS011;1905;52.482;9.802;2022-08-21T15:19:14;5.73;;;3.63;;
3779;SDS011;1905;52.482;9.802;2022-08-21T15:21:43;4.87;;;3.40;;
3779;SDS011;1905;52.482;9.802;2022-08-21T15:24:10;4.90;;;2.80;;
3779;SDS011;1905;52.482;9.802;2022-08-21T15:26:38;5.03;;;2.70;;
3779;SDS011;1905;52.482;9.802;2022-08-21T15:29:06;2.23;;;2.03;;
3779;SDS011;1905;52.482;9.802;2022-08-21T15:31:35;3.87;;;2.37;;
3779;SDS011;1905;52.482;9.802;2022-08-21T15:34:03;6.13;;;3.10;;
3779;SDS011;1905;52.482;9.802;2022-08-21T15:36:30;6.27;;;3.60;;
3779;SDS011;1905;52.482;9.802;2022-08-21T15:38:59;4.80;;;3.80;;
3779;SDS011;1905;52.482;9.802;2022-08-21T15:41:27;4.13;;;3.43;;
3779;SDS011;1905;52.482;9.802;2022-08-21T15:43:56;5.50;;;4.17;;